sensor_id;sensor_type;location;lat;lon;timestamp;P1;durP1;ratioP1;P2;durP2;ratioP2
29848;SDS011;16728;50.832;5.590;2022-07-05T00:00:44;3.70;;;2.35;;
29848;SDS011;16728;50.832;5.590;2022-07-05T00:03:46;4.13;;;2.30;;
29848;SDS011;16728;50.832;5.590;2022-07-05T00:06:48;3.25;;;2.30;;
29848;SDS011;16728;50.832;5.590;2022-07-05T00:10:09;4.10;;;2.13;;
29848;SDS011;16728;50.832;5.590;2022-07-05T00:13:11;4.03;;;2.10;;
29848;SDS011;16728;50.832;5.590;2022-07-05T00:16:14;3.08;;;2.35;;
29848;SDS011;16728;50.832;5.590;2022-07-05T00:19:17;3.13;;;2.38;;
29848;SDS011;16728;50.832;5.590;2022-07-05T00:22:19;7.00;;;2.53;;
29848;SDS011;16728;50.832;5.590;2022-07-05T00:25:21;3.10;;;2.22;;
29848;SDS011;16728;50.832;5.590;2022-07-05T00:28:23;4.65;;;2.50;;
29848;SDS011;16728;50.832;5.590;2022-07-05T00:31:25;4.07;;;2.60;;
29848;SDS011;16728;50.832;5.590;2022-07-05T00:34:36;2.58;;;2.10;;
29848;SDS011;16728;50.832;5.590;2022-07-05T00:37:38;4.45;;;2.50;;
29848;SDS011;16728;50.832;5.590;2022-07-05T00:40:41;3.58;;;2.55;;
29848;SDS011;16728;50.832;5.590;2022-07-05T00:43:51;4.18;;;2.53;;
29848;SDS011;16728;50.832;5.590;2022-07-05T00:46:55;5.95;;;2.50;;
29848;SDS011;16728;50.832;5.590;2022-07-05T00:49:57;5.40;;;2.88;;
29848;SDS011;16728;50.832;5.590;2022-07-05T00:52:59;3.53;;;2.53;;
29848;SDS011;16728;50.832;5.590;2022-07-05T00:56:01;5.40;;;2.40;;
29848;SDS011;16728;50.832;5.590;2022-07-05T00:59:04;5.07;;;2.80;;
29848;SDS011;16728;50.832;5.590;2022-07-05T01:02:06;3.72;;;2.92;;
29848;SDS011;16728;50.832;5.590;2022-07-05T01:05:08;3.27;;;2.70;;
29848;SDS011;16728;50.832;5.590;2022-07-05T01:08:10;3.78;;;2.40;;
29848;SDS011;16728;50.832;5.590;2022-07-05T01:11:15;6.60;;;3.10;;
29848;SDS011;16728;50.832;5.590;2022-07-05T01:14:20;7.30;;;2.88;;
29848;SDS011;16728;50.832;5.590;2022-07-05T01:17:24;4.95;;;2.75;;
29848;SDS011;16728;50.832;5.590;2022-07-05T01:20:35;5.85;;;2.92;;
29848;SDS011;16728;50.832;5.590;2022-07-05T01:23:53;6.97;;;3.33;;
29848;SDS011;16728;50.832;5.590;2022-07-05T01:26:55;4.25;;;2.72;;
29848;SDS011;16728;50.832;5.590;2022-07-05T01:29:57;3.85;;;3.13;;
29848;SDS011;16728;50.832;5.590;2022-07-05T01:33:00;3.78;;;3.17;;
29848;SDS011;16728;50.832;5.590;2022-07-05T01:36:03;3.72;;;3.00;;
29848;SDS011;16728;50.832;5.590;2022-07-05T01:39:05;4.50;;;3.10;;
29848;SDS011;16728;50.832;5.590;2022-07-05T01:48:55;4.72;;;3.20;;
29848;SDS011;16728;50.832;5.590;2022-07-05T01:52:01;5.20;;;2.97;;
29848;SDS011;16728;50.832;5.590;2022-07-05T01:55:08;3.42;;;2.92;;
29848;SDS011;16728;50.832;5.590;2022-07-05T02:05:19;4.38;;;2.90;;
29848;SDS011;16728;50.832;5.590;2022-07-05T02:08:21;4.70;;;3.00;;
29848;SDS011;16728;50.832;5.590;2022-07-05T02:11:30;6.13;;;2.97;;
29848;SDS011;16728;50.832;5.590;2022-07-05T02:14:32;4.28;;;3.10;;
29848;SDS011;16728;50.832;5.590;2022-07-05T02:17:34;5.43;;;3.22;;
29848;SDS011;16728;50.832;5.590;2022-07-05T02:20:38;5.50;;;3.60;;
29848;SDS011;16728;50.832;5.590;2022-07-05T02:23:41;4.53;;;3.33;;
29848;SDS011;16728;50.832;5.590;2022-07-05T02:26:43;7.68;;;3.22;;
29848;SDS011;16728;50.832;5.590;2022-07-05T02:29:45;4.88;;;3.33;;
29848;SDS011;16728;50.832;5.590;2022-07-05T02:32:47;8.10;;;3.65;;
29848;SDS011;16728;50.832;5.590;2022-07-05T02:35:49;4.30;;;3.13;;
29848;SDS011;16728;50.832;5.590;2022-07-05T02:38:51;5.72;;;3.83;;
29848;SDS011;16728;50.832;5.590;2022-07-05T02:41:53;5.85;;;3.22;;
29848;SDS011;16728;50.832;5.590;2022-07-05T02:44:55;4.18;;;3.50;;
29848;SDS011;16728;50.832;5.590;2022-07-05T02:47:57;4.35;;;3.45;;
29848;SDS011;16728;50.832;5.590;2022-07-05T02:50:59;5.75;;;3.47;;
29848;SDS011;16728;50.832;5.590;2022-07-05T02:54:02;6.43;;;3.13;;
29848;SDS011;16728;50.832;5.590;2022-07-05T02:57:04;3.60;;;3.30;;
29848;SDS011;16728;50.832;5.590;2022-07-05T03:00:07;6.17;;;3.40;;
29848;SDS011;16728;50.832;5.590;2022-07-05T03:03:09;11.60;;;3.30;;
29848;SDS011;16728;50.832;5.590;2022-07-05T03:06:11;4.97;;;3.08;;
29848;SDS011;16728;50.832;5.590;2022-07-05T03:09:13;8.07;;;3.35;;
29848;SDS011;16728;50.832;5.590;2022-07-05T03:12:15;15.10;;;3.50;;
29848;SDS011;16728;50.832;5.590;2022-07-05T03:15:17;16.27;;;3.60;;
29848;SDS011;16728;50.832;5.590;2022-07-05T03:18:20;9.10;;;3.87;;
29848;SDS011;16728;50.832;5.590;2022-07-05T03:21:22;6.18;;;3.58;;
29848;SDS011;16728;50.832;5.590;2022-07-05T03:24:24;7.47;;;4.13;;
29848;SDS011;16728;50.832;5.590;2022-07-05T03:27:26;8.70;;;4.50;;
29848;SDS011;16728;50.832;5.590;2022-07-05T03:30:28;9.02;;;4.15;;
29848;SDS011;16728;50.832;5.590;2022-07-05T03:33:29;7.25;;;4.28;;
29848;SDS011;16728;50.832;5.590;2022-07-05T03:36:31;7.97;;;4.28;;
29848;SDS011;16728;50.832;5.590;2022-07-05T03:39:34;5.93;;;4.37;;
29848;SDS011;16728;50.832;5.590;2022-07-05T03:42:36;6.88;;;4.78;;
29848;SDS011;16728;50.832;5.590;2022-07-05T03:45:38;8.38;;;4.75;;
29848;SDS011;16728;50.832;5.590;2022-07-05T03:48:40;13.93;;;4.97;;
29848;SDS011;16728;50.832;5.590;2022-07-05T03:51:42;11.60;;;5.65;;
29848;SDS011;16728;50.832;5.590;2022-07-05T03:54:44;15.73;;;5.82;;
29848;SDS011;16728;50.832;5.590;2022-07-05T03:57:46;9.80;;;5.03;;
29848;SDS011;16728;50.832;5.590;2022-07-05T04:01:00;8.20;;;5.70;;
29848;SDS011;16728;50.832;5.590;2022-07-05T04:04:03;10.80;;;5.60;;
29848;SDS011;16728;50.832;5.590;2022-07-05T04:10:28;12.60;;;5.82;;
29848;SDS011;16728;50.832;5.590;2022-07-05T04:13:31;8.10;;;5.70;;
29848;SDS011;16728;50.832;5.590;2022-07-05T04:16:33;6.28;;;5.68;;
29848;SDS011;16728;50.832;5.590;2022-07-05T04:19:35;15.05;;;5.97;;
29848;SDS011;16728;50.832;5.590;2022-07-05T04:29:56;7.63;;;5.28;;
29848;SDS011;16728;50.832;5.590;2022-07-05T04:32:58;5.95;;;5.20;;
29848;SDS011;16728;50.832;5.590;2022-07-05T04:36:00;8.18;;;5.68;;
29848;SDS011;16728;50.832;5.590;2022-07-05T04:39:03;10.55;;;6.60;;
29848;SDS011;16728;50.832;5.590;2022-07-05T04:42:05;7.30;;;5.47;;
29848;SDS011;16728;50.832;5.590;2022-07-05T04:49:28;8.63;;;5.32;;
29848;SDS011;16728;50.832;5.590;2022-07-05T04:52:31;8.77;;;6.45;;
29848;SDS011;16728;50.832;5.590;2022-07-05T04:55:33;10.48;;;6.55;;
29848;SDS011;16728;50.832;5.590;2022-07-05T04:58:35;8.48;;;6.50;;
29848;SDS011;16728;50.832;5.590;2022-07-05T05:01:37;7.88;;;7.18;;
29848;SDS011;16728;50.832;5.590;2022-07-05T05:04:39;10.05;;;8.40;;
29848;SDS011;16728;50.832;5.590;2022-07-05T05:07:41;13.82;;;11.77;;
29848;SDS011;16728;50.832;5.590;2022-07-05T05:10:44;12.85;;;10.32;;
29848;SDS011;16728;50.832;5.590;2022-07-05T05:13:46;10.27;;;9.27;;
29848;SDS011;16728;50.832;5.590;2022-07-05T05:16:48;12.20;;;8.77;;
29848;SDS011;16728;50.832;5.590;2022-07-05T05:19:50;11.27;;;8.73;;
29848;SDS011;16728;50.832;5.590;2022-07-05T05:22:52;11.10;;;7.53;;
29848;SDS011;16728;50.832;5.590;2022-07-05T05:25:54;7.63;;;6.93;;
29848;SDS011;16728;50.832;5.590;2022-07-05T05:28:56;7.57;;;6.53;;
29848;SDS011;16728;50.832;5.590;2022-07-05T05:31:58;11.98;;;6.78;;
29848;SDS011;16728;50.832;5.590;2022-07-05T05:35:01;10.50;;;6.55;;
29848;SDS011;16728;50.832;5.590;2022-07-05T05:38:03;7.03;;;6.43;;
29848;SDS011;16728;50.832;5.590;2022-07-05T05:41:05;8.60;;;6.50;;
29848;SDS011;16728;50.832;5.590;2022-07-05T05:44:08;7.75;;;6.32;;
29848;SDS011;16728;50.832;5.590;2022-07-05T05:47:11;11.13;;;6.00;;
29848;SDS011;16728;50.832;5.590;2022-07-05T05:50:18;7.20;;;6.38;;
29848;SDS011;16728;50.832;5.590;2022-07-05T05:53:23;8.60;;;6.50;;
29848;SDS011;16728;50.832;5.590;2022-07-05T05:56:30;7.85;;;6.03;;
29848;SDS011;16728;50.832;5.590;2022-07-05T05:59:32;11.68;;;5.68;;
29848;SDS011;16728;50.832;5.590;2022-07-05T06:02:34;9.07;;;5.43;;
29848;SDS011;16728;50.832;5.590;2022-07-05T06:05:36;7.20;;;5.40;;
29848;SDS011;16728;50.832;5.590;2022-07-05T06:08:38;7.80;;;5.40;;
29848;SDS011;16728;50.832;5.590;2022-07-05T06:11:40;16.77;;;6.40;;
29848;SDS011;16728;50.832;5.590;2022-07-05T06:14:42;8.07;;;6.00;;
29848;SDS011;16728;50.832;5.590;2022-07-05T06:17:44;8.82;;;5.90;;
29848;SDS011;16728;50.832;5.590;2022-07-05T06:21:06;8.73;;;6.07;;
29848;SDS011;16728;50.832;5.590;2022-07-05T06:24:09;9.20;;;6.18;;
29848;SDS011;16728;50.832;5.590;2022-07-05T06:27:11;5.88;;;5.35;;
29848;SDS011;16728;50.832;5.590;2022-07-05T06:30:17;7.85;;;5.75;;
29848;SDS011;16728;50.832;5.590;2022-07-05T06:33:20;7.43;;;5.88;;
29848;SDS011;16728;50.832;5.590;2022-07-05T06:36:22;9.23;;;5.55;;
29848;SDS011;16728;50.832;5.590;2022-07-05T06:42:34;9.50;;;5.60;;
29848;SDS011;16728;50.832;5.590;2022-07-05T06:48:56;9.73;;;6.20;;
29848;SDS011;16728;50.832;5.590;2022-07-05T06:51:58;7.43;;;5.80;;
29848;SDS011;16728;50.832;5.590;2022-07-05T06:55:00;9.25;;;5.82;;
29848;SDS011;16728;50.832;5.590;2022-07-05T06:58:15;10.23;;;6.32;;
29848;SDS011;16728;50.832;5.590;2022-07-05T07:01:17;8.52;;;5.65;;
29848;SDS011;16728;50.832;5.590;2022-07-05T07:13:13;8.30;;;7.05;;
29848;SDS011;16728;50.832;5.590;2022-07-05T07:32:36;5.05;;;3.20;;
29848;SDS011;16728;50.832;5.590;2022-07-05T07:35:38;8.07;;;3.80;;
29848;SDS011;16728;50.832;5.590;2022-07-05T07:38:40;5.55;;;4.55;;
29848;SDS011;16728;50.832;5.590;2022-07-05T07:45:34;3.95;;;2.45;;
29848;SDS011;16728;50.832;5.590;2022-07-05T07:48:44;5.60;;;3.25;;
29848;SDS011;16728;50.832;5.590;2022-07-05T07:51:46;6.30;;;3.35;;
29848;SDS011;16728;50.832;5.590;2022-07-05T08:02:02;4.95;;;3.20;;
29848;SDS011;16728;50.832;5.590;2022-07-05T08:05:04;5.68;;;2.80;;
29848;SDS011;16728;50.832;5.590;2022-07-05T08:08:07;4.70;;;2.25;;
29848;SDS011;16728;50.832;5.590;2022-07-05T08:11:09;5.55;;;1.67;;
29848;SDS011;16728;50.832;5.590;2022-07-05T08:14:12;3.35;;;2.33;;
29848;SDS011;16728;50.832;5.590;2022-07-05T08:17:18;5.32;;;1.90;;
29848;SDS011;16728;50.832;5.590;2022-07-05T08:20:21;4.63;;;2.35;;
29848;SDS011;16728;50.832;5.590;2022-07-05T08:23:42;3.17;;;2.10;;
29848;SDS011;16728;50.832;5.590;2022-07-05T08:26:44;16.27;;;11.05;;
29848;SDS011;16728;50.832;5.590;2022-07-05T08:29:45;9.48;;;4.70;;
29848;SDS011;16728;50.832;5.590;2022-07-05T08:32:48;6.50;;;2.88;;
29848;SDS011;16728;50.832;5.590;2022-07-05T08:35:50;3.35;;;2.10;;
29848;SDS011;16728;50.832;5.590;2022-07-05T08:38:52;12.32;;;2.70;;
29848;SDS011;16728;50.832;5.590;2022-07-05T08:45:20;3.72;;;2.30;;
29848;SDS011;16728;50.832;5.590;2022-07-05T08:48:49;4.05;;;2.70;;
29848;SDS011;16728;50.832;5.590;2022-07-05T08:51:52;8.15;;;3.25;;
29848;SDS011;16728;50.832;5.590;2022-07-05T08:54:55;6.72;;;3.40;;
29848;SDS011;16728;50.832;5.590;2022-07-05T09:01:22;7.22;;;2.95;;
29848;SDS011;16728;50.832;5.590;2022-07-05T09:04:42;5.95;;;2.70;;
29848;SDS011;16728;50.832;5.590;2022-07-05T09:07:52;5.18;;;2.90;;
29848;SDS011;16728;50.832;5.590;2022-07-05T09:11:01;4.13;;;2.53;;
29848;SDS011;16728;50.832;5.590;2022-07-05T09:14:07;5.53;;;3.13;;
29848;SDS011;16728;50.832;5.590;2022-07-05T09:17:29;3.35;;;1.55;;
29848;SDS011;16728;50.832;5.590;2022-07-05T09:20:31;3.63;;;2.25;;
29848;SDS011;16728;50.832;5.590;2022-07-05T09:23:33;4.25;;;2.25;;
29848;SDS011;16728;50.832;5.590;2022-07-05T09:26:41;4.43;;;2.00;;
29848;SDS011;16728;50.832;5.590;2022-07-05T09:29:53;2.75;;;2.10;;
29848;SDS011;16728;50.832;5.590;2022-07-05T09:36:24;3.50;;;1.48;;
29848;SDS011;16728;50.832;5.590;2022-07-05T09:42:31;4.75;;;1.80;;
29848;SDS011;16728;50.832;5.590;2022-07-05T09:46:11;4.43;;;1.58;;
29848;SDS011;16728;50.832;5.590;2022-07-05T09:49:15;7.50;;;5.40;;
29848;SDS011;16728;50.832;5.590;2022-07-05T09:56:05;4.13;;;3.25;;
29848;SDS011;16728;50.832;5.590;2022-07-05T10:03:01;3.25;;;1.70;;
29848;SDS011;16728;50.832;5.590;2022-07-05T10:13:39;2.45;;;1.55;;
29848;SDS011;16728;50.832;5.590;2022-07-05T10:16:45;4.88;;;1.60;;
29848;SDS011;16728;50.832;5.590;2022-07-05T10:19:54;3.88;;;1.50;;
29848;SDS011;16728;50.832;5.590;2022-07-05T10:22:58;3.60;;;1.23;;
29848;SDS011;16728;50.832;5.590;2022-07-05T10:26:06;2.80;;;1.52;;
29848;SDS011;16728;50.832;5.590;2022-07-05T10:32:12;3.45;;;1.42;;
29848;SDS011;16728;50.832;5.590;2022-07-05T10:35:17;3.92;;;1.42;;
29848;SDS011;16728;50.832;5.590;2022-07-05T10:38:24;5.13;;;1.60;;
29848;SDS011;16728;50.832;5.590;2022-07-05T10:41:26;4.78;;;1.60;;
29848;SDS011;16728;50.832;5.590;2022-07-05T10:44:30;3.05;;;1.60;;
29848;SDS011;16728;50.832;5.590;2022-07-05T10:47:34;2.97;;;1.63;;
29848;SDS011;16728;50.832;5.590;2022-07-05T10:50:47;4.50;;;1.55;;
29848;SDS011;16728;50.832;5.590;2022-07-05T10:54:00;3.35;;;1.40;;
29848;SDS011;16728;50.832;5.590;2022-07-05T11:00:34;2.80;;;1.40;;
29848;SDS011;16728;50.832;5.590;2022-07-05T11:03:36;2.63;;;1.50;;
29848;SDS011;16728;50.832;5.590;2022-07-05T11:06:41;2.95;;;1.63;;
29848;SDS011;16728;50.832;5.590;2022-07-05T11:09:59;3.63;;;1.58;;
29848;SDS011;16728;50.832;5.590;2022-07-05T11:13:31;3.08;;;1.40;;
29848;SDS011;16728;50.832;5.590;2022-07-05T11:16:41;3.80;;;1.55;;
29848;SDS011;16728;50.832;5.590;2022-07-05T11:20:03;2.67;;;1.73;;
29848;SDS011;16728;50.832;5.590;2022-07-05T11:23:11;2.15;;;1.33;;
29848;SDS011;16728;50.832;5.590;2022-07-05T11:26:15;2.75;;;1.30;;
29848;SDS011;16728;50.832;5.590;2022-07-05T11:32:42;3.15;;;1.52;;
29848;SDS011;16728;50.832;5.590;2022-07-05T11:35:43;4.05;;;1.20;;
29848;SDS011;16728;50.832;5.590;2022-07-05T11:42:19;2.28;;;1.50;;
29848;SDS011;16728;50.832;5.590;2022-07-05T11:45:22;4.25;;;1.50;;
29848;SDS011;16728;50.832;5.590;2022-07-05T11:48:25;2.83;;;1.40;;
29848;SDS011;16728;50.832;5.590;2022-07-05T11:51:30;3.95;;;1.45;;
29848;SDS011;16728;50.832;5.590;2022-07-05T11:57:36;2.03;;;1.40;;
29848;SDS011;16728;50.832;5.590;2022-07-05T12:00:53;5.67;;;1.33;;
29848;SDS011;16728;50.832;5.590;2022-07-05T12:03:59;3.08;;;1.55;;
29848;SDS011;16728;50.832;5.590;2022-07-05T12:07:01;2.92;;;1.52;;
29848;SDS011;16728;50.832;5.590;2022-07-05T12:18:18;4.05;;;1.65;;
29848;SDS011;16728;50.832;5.590;2022-07-05T12:21:21;2.70;;;1.88;;
29848;SDS011;16728;50.832;5.590;2022-07-05T12:31:00;3.33;;;1.52;;
29848;SDS011;16728;50.832;5.590;2022-07-05T12:38:21;2.75;;;1.40;;
29848;SDS011;16728;50.832;5.590;2022-07-05T12:41:44;4.32;;;1.60;;
29848;SDS011;16728;50.832;5.590;2022-07-05T12:44:46;3.72;;;1.80;;
29848;SDS011;16728;50.832;5.590;2022-07-05T12:47:53;4.95;;;1.65;;
29848;SDS011;16728;50.832;5.590;2022-07-05T12:50:56;3.85;;;1.60;;
29848;SDS011;16728;50.832;5.590;2022-07-05T12:54:25;5.95;;;1.80;;
29848;SDS011;16728;50.832;5.590;2022-07-05T12:58:14;5.50;;;1.40;;
29848;SDS011;16728;50.832;5.590;2022-07-05T13:01:27;2.30;;;1.35;;
29848;SDS011;16728;50.832;5.590;2022-07-05T13:04:31;5.35;;;1.38;;
29848;SDS011;16728;50.832;5.590;2022-07-05T13:07:42;4.38;;;1.40;;
29848;SDS011;16728;50.832;5.590;2022-07-05T13:10:51;5.55;;;1.13;;
29848;SDS011;16728;50.832;5.590;2022-07-05T13:13:53;2.90;;;1.48;;
29848;SDS011;16728;50.832;5.590;2022-07-05T13:16:55;3.88;;;1.42;;
29848;SDS011;16728;50.832;5.590;2022-07-05T13:19:57;3.58;;;1.38;;
29848;SDS011;16728;50.832;5.590;2022-07-05T13:23:01;2.10;;;1.30;;
29848;SDS011;16728;50.832;5.590;2022-07-05T13:26:03;4.45;;;1.45;;
29848;SDS011;16728;50.832;5.590;2022-07-05T13:29:19;5.63;;;1.60;;
29848;SDS011;16728;50.832;5.590;2022-07-05T13:32:21;7.23;;;1.60;;
29848;SDS011;16728;50.832;5.590;2022-07-05T13:35:42;3.28;;;1.50;;
29848;SDS011;16728;50.832;5.590;2022-07-05T13:38:52;4.45;;;1.70;;
29848;SDS011;16728;50.832;5.590;2022-07-05T13:41:55;2.85;;;1.50;;
29848;SDS011;16728;50.832;5.590;2022-07-05T13:45:07;6.35;;;2.00;;
29848;SDS011;16728;50.832;5.590;2022-07-05T13:48:11;6.35;;;1.80;;
29848;SDS011;16728;50.832;5.590;2022-07-05T13:51:12;5.53;;;1.42;;
29848;SDS011;16728;50.832;5.590;2022-07-05T13:54:15;2.58;;;1.50;;
29848;SDS011;16728;50.832;5.590;2022-07-05T13:57:17;1.90;;;1.30;;
29848;SDS011;16728;50.832;5.590;2022-07-05T14:00:19;5.78;;;1.73;;
29848;SDS011;16728;50.832;5.590;2022-07-05T14:03:21;3.17;;;1.75;;
29848;SDS011;16728;50.832;5.590;2022-07-05T14:06:23;6.18;;;1.45;;
29848;SDS011;16728;50.832;5.590;2022-07-05T14:09:28;4.18;;;1.60;;
29848;SDS011;16728;50.832;5.590;2022-07-05T14:12:30;3.60;;;1.70;;
29848;SDS011;16728;50.832;5.590;2022-07-05T14:15:32;4.47;;;1.63;;
29848;SDS011;16728;50.832;5.590;2022-07-05T14:18:34;2.72;;;1.73;;
29848;SDS011;16728;50.832;5.590;2022-07-05T14:21:37;5.05;;;1.70;;
29848;SDS011;16728;50.832;5.590;2022-07-05T14:24:40;5.40;;;1.77;;
29848;SDS011;16728;50.832;5.590;2022-07-05T14:27:42;4.88;;;1.70;;
29848;SDS011;16728;50.832;5.590;2022-07-05T14:30:44;2.95;;;1.50;;
29848;SDS011;16728;50.832;5.590;2022-07-05T14:36:50;3.90;;;1.90;;
29848;SDS011;16728;50.832;5.590;2022-07-05T14:39:54;6.93;;;2.08;;
29848;SDS011;16728;50.832;5.590;2022-07-05T14:42:57;4.78;;;1.63;;
29848;SDS011;16728;50.832;5.590;2022-07-05T14:46:00;7.85;;;1.70;;
29848;SDS011;16728;50.832;5.590;2022-07-05T14:49:02;5.95;;;1.85;;
29848;SDS011;16728;50.832;5.590;2022-07-05T14:52:05;10.33;;;2.33;;
29848;SDS011;16728;50.832;5.590;2022-07-05T14:55:07;5.88;;;2.22;;
29848;SDS011;16728;50.832;5.590;2022-07-05T14:58:19;2.95;;;1.67;;
29848;SDS011;16728;50.832;5.590;2022-07-05T15:01:21;4.57;;;2.10;;
29848;SDS011;16728;50.832;5.590;2022-07-05T15:04:23;5.53;;;2.25;;
29848;SDS011;16728;50.832;5.590;2022-07-05T15:07:25;6.35;;;2.10;;
29848;SDS011;16728;50.832;5.590;2022-07-05T15:21:11;7.28;;;2.85;;
29848;SDS011;16728;50.832;5.590;2022-07-05T15:24:13;5.40;;;2.70;;
29848;SDS011;16728;50.832;5.590;2022-07-05T15:27:18;7.00;;;2.97;;
29848;SDS011;16728;50.832;5.590;2022-07-05T15:30:20;3.58;;;2.42;;
29848;SDS011;16728;50.832;5.590;2022-07-05T15:33:24;3.92;;;2.65;;
29848;SDS011;16728;50.832;5.590;2022-07-05T15:36:30;4.28;;;2.40;;
29848;SDS011;16728;50.832;5.590;2022-07-05T15:39:51;5.82;;;2.50;;
29848;SDS011;16728;50.832;5.590;2022-07-05T15:43:07;5.28;;;2.13;;
29848;SDS011;16728;50.832;5.590;2022-07-05T15:50:19;5.35;;;2.40;;
29848;SDS011;16728;50.832;5.590;2022-07-05T15:53:21;6.28;;;2.88;;
29848;SDS011;16728;50.832;5.590;2022-07-05T15:56:23;7.57;;;2.35;;
29848;SDS011;16728;50.832;5.590;2022-07-05T15:59:34;5.55;;;2.28;;
29848;SDS011;16728;50.832;5.590;2022-07-05T16:02:42;3.50;;;2.28;;
29848;SDS011;16728;50.832;5.590;2022-07-05T16:05:48;3.88;;;1.98;;
29848;SDS011;16728;50.832;5.590;2022-07-05T16:08:50;3.70;;;1.90;;
29848;SDS011;16728;50.832;5.590;2022-07-05T16:11:52;4.32;;;1.60;;
29848;SDS011;16728;50.832;5.590;2022-07-05T16:14:54;5.32;;;1.77;;
29848;SDS011;16728;50.832;5.590;2022-07-05T16:17:59;5.00;;;1.70;;
29848;SDS011;16728;50.832;5.590;2022-07-05T16:21:02;6.85;;;1.75;;
29848;SDS011;16728;50.832;5.590;2022-07-05T16:24:25;5.97;;;1.52;;
29848;SDS011;16728;50.832;5.590;2022-07-05T16:27:26;4.25;;;1.40;;
29848;SDS011;16728;50.832;5.590;2022-07-05T16:30:34;6.70;;;1.52;;
29848;SDS011;16728;50.832;5.590;2022-07-05T16:33:55;5.30;;;1.20;;
29848;SDS011;16728;50.832;5.590;2022-07-05T16:37:14;3.47;;;1.20;;
29848;SDS011;16728;50.832;5.590;2022-07-05T16:40:46;7.17;;;1.30;;
29848;SDS011;16728;50.832;5.590;2022-07-05T16:44:06;3.28;;;1.20;;
29848;SDS011;16728;50.832;5.590;2022-07-05T16:50:34;3.22;;;1.27;;
29848;SDS011;16728;50.832;5.590;2022-07-05T16:53:37;3.78;;;1.40;;
29848;SDS011;16728;50.832;5.590;2022-07-05T16:56:39;4.32;;;1.10;;
29848;SDS011;16728;50.832;5.590;2022-07-05T16:59:41;3.10;;;1.20;;
29848;SDS011;16728;50.832;5.590;2022-07-05T17:02:43;5.15;;;1.30;;
29848;SDS011;16728;50.832;5.590;2022-07-05T17:05:45;2.53;;;1.10;;
29848;SDS011;16728;50.832;5.590;2022-07-05T17:08:47;5.13;;;1.23;;
29848;SDS011;16728;50.832;5.590;2022-07-05T17:11:49;7.65;;;1.50;;
29848;SDS011;16728;50.832;5.590;2022-07-05T17:14:54;3.88;;;1.40;;
29848;SDS011;16728;50.832;5.590;2022-07-05T17:17:56;5.57;;;1.25;;
29848;SDS011;16728;50.832;5.590;2022-07-05T17:21:05;6.82;;;1.17;;
29848;SDS011;16728;50.832;5.590;2022-07-05T17:24:08;5.22;;;1.10;;
29848;SDS011;16728;50.832;5.590;2022-07-05T17:27:12;2.15;;;1.20;;
29848;SDS011;16728;50.832;5.590;2022-07-05T17:30:14;2.67;;;1.08;;
29848;SDS011;16728;50.832;5.590;2022-07-05T17:33:16;4.45;;;1.30;;
29848;SDS011;16728;50.832;5.590;2022-07-05T17:36:19;5.88;;;1.25;;
29848;SDS011;16728;50.832;5.590;2022-07-05T17:39:20;4.88;;;1.08;;
29848;SDS011;16728;50.832;5.590;2022-07-05T17:42:22;2.95;;;0.95;;
29848;SDS011;16728;50.832;5.590;2022-07-05T17:45:24;8.05;;;1.05;;
29848;SDS011;16728;50.832;5.590;2022-07-05T17:48:26;5.20;;;1.30;;
29848;SDS011;16728;50.832;5.590;2022-07-05T17:51:31;5.80;;;1.13;;
29848;SDS011;16728;50.832;5.590;2022-07-05T18:02:12;3.15;;;1.10;;
29848;SDS011;16728;50.832;5.590;2022-07-05T18:05:14;2.03;;;1.13;;
29848;SDS011;16728;50.832;5.590;2022-07-05T18:08:16;2.65;;;1.00;;
29848;SDS011;16728;50.832;5.590;2022-07-05T18:11:30;1.80;;;0.77;;
29848;SDS011;16728;50.832;5.590;2022-07-05T18:14:42;5.70;;;1.00;;
29848;SDS011;16728;50.832;5.590;2022-07-05T18:17:44;3.08;;;1.27;;
29848;SDS011;16728;50.832;5.590;2022-07-05T18:20:47;4.32;;;1.05;;
29848;SDS011;16728;50.832;5.590;2022-07-05T18:23:49;2.50;;;0.80;;
29848;SDS011;16728;50.832;5.590;2022-07-05T18:26:51;2.72;;;1.00;;
29848;SDS011;16728;50.832;5.590;2022-07-05T18:30:02;2.95;;;0.80;;
29848;SDS011;16728;50.832;5.590;2022-07-05T18:33:04;2.63;;;0.80;;
29848;SDS011;16728;50.832;5.590;2022-07-05T18:36:07;6.10;;;1.10;;
29848;SDS011;16728;50.832;5.590;2022-07-05T18:46:04;3.90;;;1.20;;
29848;SDS011;16728;50.832;5.590;2022-07-05T18:49:07;3.05;;;1.10;;
29848;SDS011;16728;50.832;5.590;2022-07-05T18:52:10;4.00;;;0.87;;
29848;SDS011;16728;50.832;5.590;2022-07-05T18:55:12;1.70;;;1.05;;
29848;SDS011;16728;50.832;5.590;2022-07-05T18:58:13;1.70;;;1.00;;
29848;SDS011;16728;50.832;5.590;2022-07-05T19:01:17;2.35;;;1.02;;
29848;SDS011;16728;50.832;5.590;2022-07-05T19:04:29;2.30;;;1.00;;
29848;SDS011;16728;50.832;5.590;2022-07-05T19:07:31;2.47;;;1.10;;
29848;SDS011;16728;50.832;5.590;2022-07-05T19:10:54;2.55;;;1.20;;
29848;SDS011;16728;50.832;5.590;2022-07-05T19:14:25;4.82;;;1.15;;
29848;SDS011;16728;50.832;5.590;2022-07-05T19:17:30;2.25;;;1.00;;
29848;SDS011;16728;50.832;5.590;2022-07-05T19:20:32;3.95;;;1.08;;
29848;SDS011;16728;50.832;5.590;2022-07-05T19:23:54;2.45;;;1.10;;
29848;SDS011;16728;50.832;5.590;2022-07-05T19:26:56;4.32;;;0.90;;
29848;SDS011;16728;50.832;5.590;2022-07-05T19:30:01;4.28;;;1.10;;
29848;SDS011;16728;50.832;5.590;2022-07-05T19:33:05;2.42;;;1.05;;
29848;SDS011;16728;50.832;5.590;2022-07-05T19:36:07;4.22;;;1.20;;
29848;SDS011;16728;50.832;5.590;2022-07-05T19:39:09;1.98;;;0.95;;
29848;SDS011;16728;50.832;5.590;2022-07-05T19:42:11;2.55;;;1.00;;
29848;SDS011;16728;50.832;5.590;2022-07-05T19:45:13;2.92;;;1.13;;
29848;SDS011;16728;50.832;5.590;2022-07-05T19:48:21;3.65;;;0.82;;
29848;SDS011;16728;50.832;5.590;2022-07-05T19:51:24;3.20;;;1.77;;
29848;SDS011;16728;50.832;5.590;2022-07-05T19:54:26;2.40;;;1.20;;
29848;SDS011;16728;50.832;5.590;2022-07-05T19:57:28;2.67;;;1.17;;
29848;SDS011;16728;50.832;5.590;2022-07-05T20:00:30;4.78;;;1.10;;
29848;SDS011;16728;50.832;5.590;2022-07-05T20:03:33;3.67;;;1.00;;
29848;SDS011;16728;50.832;5.590;2022-07-05T20:06:36;2.38;;;0.90;;
29848;SDS011;16728;50.832;5.590;2022-07-05T20:09:40;1.52;;;1.00;;
29848;SDS011;16728;50.832;5.590;2022-07-05T20:12:42;4.05;;;0.82;;
29848;SDS011;16728;50.832;5.590;2022-07-05T20:15:45;2.63;;;0.75;;
29848;SDS011;16728;50.832;5.590;2022-07-05T20:23:19;2.53;;;0.90;;
29848;SDS011;16728;50.832;5.590;2022-07-05T20:26:21;1.70;;;1.17;;
29848;SDS011;16728;50.832;5.590;2022-07-05T20:29:23;2.65;;;1.10;;
29848;SDS011;16728;50.832;5.590;2022-07-05T20:32:28;2.35;;;1.05;;
29848;SDS011;16728;50.832;5.590;2022-07-05T20:41:54;3.28;;;1.17;;
29848;SDS011;16728;50.832;5.590;2022-07-05T20:44:56;2.75;;;1.25;;
29848;SDS011;16728;50.832;5.590;2022-07-05T20:47:58;3.22;;;1.20;;
29848;SDS011;16728;50.832;5.590;2022-07-05T20:50:59;2.67;;;1.27;;
29848;SDS011;16728;50.832;5.590;2022-07-05T20:54:13;2.45;;;1.50;;
29848;SDS011;16728;50.832;5.590;2022-07-05T21:04:32;3.17;;;1.38;;
29848;SDS011;16728;50.832;5.590;2022-07-05T21:07:34;2.78;;;1.50;;
29848;SDS011;16728;50.832;5.590;2022-07-05T21:10:37;3.30;;;1.83;;
29848;SDS011;16728;50.832;5.590;2022-07-05T21:13:39;4.43;;;1.58;;
29848;SDS011;16728;50.832;5.590;2022-07-05T21:16:41;2.88;;;1.45;;
29848;SDS011;16728;50.832;5.590;2022-07-05T21:19:43;5.45;;;1.70;;
29848;SDS011;16728;50.832;5.590;2022-07-05T21:22:48;4.25;;;1.50;;
29848;SDS011;16728;50.832;5.590;2022-07-05T21:25:50;4.30;;;1.60;;
29848;SDS011;16728;50.832;5.590;2022-07-05T21:28:52;5.85;;;1.77;;
29848;SDS011;16728;50.832;5.590;2022-07-05T21:31:53;6.55;;;2.10;;
29848;SDS011;16728;50.832;5.590;2022-07-05T21:34:55;6.35;;;1.85;;
29848;SDS011;16728;50.832;5.590;2022-07-05T21:37:57;2.95;;;1.60;;
29848;SDS011;16728;50.832;5.590;2022-07-05T21:40:59;4.43;;;1.67;;